createdAt,value
2019-05-15T00:02:11.127Z,99841.59
2019-05-15T00:04:46.329Z,99835.16
2019-05-15T00:07:18.655Z,99832.38
2019-05-15T00:09:52.716Z,99830.70
2019-05-15T00:12:28.398Z,99832.16
2019-05-15T00:15:00.691Z,99822.22
2019-05-15T00:17:34.110Z,99818.34
2019-05-15T00:20:09.639Z,99824.16
2019-05-15T00:22:41.078Z,99822.21
2019-05-15T00:25:32.786Z,99823.05
2019-05-15T00:28:18.528Z,99821.12
2019-05-15T00:30:52.725Z,99825.13
2019-05-15T00:33:25.979Z,99818.42
2019-05-15T00:39:39.751Z,99812.72
2019-05-15T00:42:11.613Z,99808.41
2019-05-15T00:44:43.509Z,99804.89
2019-05-15T00:47:18.240Z,99798.61
2019-05-15T00:50:39.703Z,99795.83
2019-05-15T00:53:14.970Z,99790.44
2019-05-15T00:55:48.584Z,99785.48
2019-05-15T00:59:26.253Z,99785.98
2019-05-15T01:02:32.250Z,99783.09
2019-05-15T01:05:05.130Z,99777.98
2019-05-15T01:07:38.930Z,99772.77
2019-05-15T01:10:10.759Z,99772.28
2019-05-15T01:12:48.527Z,99767.66
2019-05-15T01:15:25.193Z,99763.06
2019-05-15T01:17:58.304Z,99724.06
2019-05-15T01:20:31.977Z,99762.47
2019-05-15T01:23:03.778Z,99753.88
2019-05-15T01:25:35.477Z,99754.30
2019-05-15T01:28:28.926Z,99742.61
2019-05-15T01:30:59.174Z,99753.16
2019-05-15T01:33:34.442Z,99749.48
2019-05-15T01:36:08.551Z,99744.31
2019-05-15T01:39:31.835Z,99743.64
2019-05-15T01:41:40.106Z,99739.43
2019-05-15T01:44:14.190Z,99732.44
2019-05-15T01:46:55.139Z,99723.00
2019-05-15T01:49:28.050Z,99721.09
2019-05-15T01:52:22.971Z,99720.17
2019-05-15T01:55:08.828Z,99716.91
2019-05-15T01:57:50.194Z,99713.06
2019-05-15T02:00:34.194Z,99702.20
2019-05-15T02:03:10.790Z,99709.31
2019-05-15T02:06:29.034Z,99704.97
2019-05-15T02:08:41.896Z,99708.94
2019-05-15T02:11:38.272Z,99701.70
2019-05-15T02:16:39.284Z,99708.73
2019-05-15T02:19:19.359Z,99702.78
2019-05-15T02:21:51.526Z,99708.36
2019-05-15T02:24:23.735Z,99700.88
2019-05-15T02:27:18.436Z,99710.30
2019-05-15T02:29:53.120Z,99702.31
2019-05-15T02:32:30.166Z,99701.67
2019-05-15T02:37:48.872Z,99698.68
2019-05-15T02:40:43.019Z,99697.66
2019-05-15T02:43:44.083Z,99697.52
2019-05-15T02:49:32.424Z,99695.95
2019-05-15T02:56:01.326Z,99700.27
2019-05-15T02:58:33.082Z,99701.42
2019-05-15T03:01:04.807Z,99701.91
2019-05-15T03:03:38.711Z,99702.84
2019-05-15T03:06:10.395Z,99706.44
2019-05-15T03:08:42.179Z,99710.55
2019-05-15T03:11:13.917Z,99711.48
2019-05-15T03:13:45.677Z,99709.61
2019-05-15T03:16:19.531Z,99708.07
2019-05-15T03:18:55.169Z,99708.17
2019-05-15T03:21:24.425Z,99720.45
2019-05-15T03:23:59.592Z,99718.08
2019-05-15T03:26:31.398Z,99718.35
2019-05-15T03:29:05.724Z,99721.72
2019-05-15T03:31:52.786Z,99726.03
2019-05-15T03:34:21.545Z,99723.31
2019-05-15T03:36:53.027Z,99717.75
2019-05-15T03:39:22.149Z,99722.05
2019-05-15T03:41:54.287Z,99723.47
2019-05-15T03:44:28.709Z,99732.48
2019-05-15T03:47:00.854Z,99731.36
2019-05-15T03:49:32.565Z,99736.34
2019-05-15T03:52:04.342Z,99731.41
2019-05-15T03:54:38.980Z,99730.62
2019-05-15T03:57:09.897Z,99727.02
2019-05-15T03:59:43.639Z,99733.80
2019-05-15T04:02:15.511Z,99731.41
2019-05-15T04:04:50.183Z,99731.83
2019-05-15T04:07:20.789Z,99726.39
2019-05-15T04:09:53.869Z,99728.05
2019-05-15T04:12:28.782Z,99728.88
2019-05-15T04:14:59.694Z,99738.91
2019-05-15T04:17:31.990Z,99736.08
2019-05-15T04:20:03.750Z,99734.01
2019-05-15T04:22:35.488Z,99729.88
2019-05-15T04:25:09.754Z,99730.27
2019-05-15T04:27:41.565Z,99729.20
2019-05-15T04:30:13.913Z,99727.21
2019-05-15T04:32:48.579Z,99728.77
2019-05-15T04:35:20.091Z,99733.12
2019-05-15T04:37:51.787Z,99728.73
2019-05-15T04:40:23.503Z,99728.47
2019-05-15T04:42:55.204Z,99729.72
2019-05-15T04:45:34.408Z,99741.64
2019-05-15T04:48:03.829Z,99744.20
2019-05-15T04:50:35.557Z,99743.88
2019-05-15T04:53:10.770Z,99751.41
2019-05-15T04:55:41.044Z,99748.33
2019-05-15T04:58:12.831Z,99756.59
2019-05-15T05:00:49.977Z,99757.28
2019-05-15T05:03:21.978Z,99762.83
2019-05-15T05:05:54.292Z,99767.52
2019-05-15T05:08:28.697Z,99771.53
2019-05-15T05:10:59.537Z,99772.69
2019-05-15T05:13:31.259Z,99774.91
2019-05-15T05:16:02.995Z,99764.61
2019-05-15T05:18:34.717Z,99772.03
2019-05-15T05:21:07.993Z,99776.47
2019-05-15T05:23:39.984Z,99779.39
2019-05-15T05:26:11.679Z,99782.00
2019-05-15T05:28:43.457Z,99779.16
2019-05-15T05:31:15.194Z,99787.52
2019-05-15T05:33:50.128Z,99789.55
2019-05-15T05:36:22.034Z,99785.84
2019-05-15T05:38:53.750Z,99788.83
2019-05-15T05:41:28.096Z,99791.37
2019-05-15T05:44:00.320Z,99788.69
2019-05-15T05:46:32.015Z,99788.08
2019-05-15T05:49:05.031Z,99791.12
2019-05-15T05:51:38.715Z,99790.39
2019-05-15T05:54:10.183Z,99796.29
2019-05-15T05:56:42.452Z,99799.75
2019-05-15T05:59:14.177Z,99805.89
2019-05-15T06:01:48.163Z,99801.42
2019-05-15T06:04:19.330Z,99807.97
2019-05-15T06:07:06.291Z,99807.21
2019-05-15T06:09:27.817Z,99805.75
2019-05-15T06:11:59.862Z,99800.14
2019-05-15T06:14:31.574Z,99810.70
2019-05-15T06:17:03.403Z,99810.42
2019-05-15T06:19:35.123Z,99814.92
2019-05-15T06:22:08.810Z,99809.48
2019-05-15T06:24:42.393Z,99812.90
2019-05-15T06:27:14.186Z,99814.66
2019-05-15T06:29:45.914Z,99816.75
2019-05-15T06:32:19.523Z,99810.36
2019-05-15T06:34:51.238Z,99806.38
2019-05-15T06:37:22.931Z,99813.53
2019-05-15T06:39:54.674Z,99804.46
2019-05-15T06:42:28.305Z,99806.11
2019-05-15T06:45:00.253Z,99805.89
2019-05-15T06:47:39.426Z,99809.89
2019-05-15T06:50:50.106Z,99805.19
2019-05-15T06:53:44.806Z,99812.44
2019-05-15T06:56:18.783Z,99815.34
2019-05-15T06:58:54.989Z,99818.31
2019-05-15T07:01:29.432Z,99816.00
2019-05-15T07:04:01.427Z,99823.66
2019-05-15T07:06:35.006Z,99828.95
2019-05-15T07:09:09.456Z,99821.92
2019-05-15T07:11:40.816Z,99824.33
2019-05-15T07:14:12.606Z,99828.35
2019-05-15T07:16:44.375Z,99827.55
2019-05-15T07:19:18.820Z,99831.31
2019-05-15T07:21:50.747Z,99835.39
2019-05-15T07:24:23.458Z,99831.48
2019-05-15T07:26:59.122Z,99827.52
2019-05-15T07:29:31.303Z,99825.62
2019-05-15T07:32:04.969Z,99822.22
2019-05-15T07:34:38.242Z,99820.98
2019-05-15T07:37:10.061Z,99823.45
2019-05-15T07:39:42.025Z,99815.89
2019-05-15T07:42:13.754Z,99817.33
2019-05-15T07:44:48.168Z,99803.74
2019-05-15T07:47:20.316Z,99810.84
2019-05-15T07:49:52.110Z,99807.28
2019-05-15T07:52:23.846Z,99813.73
2019-05-15T07:54:58.281Z,99813.09
2019-05-15T07:57:30.505Z,99810.47
2019-05-15T08:00:02.257Z,99802.36
2019-05-15T08:02:34.678Z,99804.59
2019-05-15T08:05:08.384Z,99807.58
2019-05-15T08:07:42.737Z,99810.76
2019-05-15T08:10:18.154Z,99805.73
2019-05-15T08:12:49.612Z,99808.56
2019-05-15T08:15:21.395Z,99807.10
2019-05-15T08:18:08.174Z,99809.42
2019-05-15T08:20:28.822Z,99805.98
2019-05-15T08:23:00.023Z,99799.34
2019-05-15T08:25:35.333Z,99805.63
2019-05-15T08:28:05.199Z,99805.58
2019-05-15T08:30:38.728Z,99800.11
2019-05-15T08:33:10.465Z,99800.58
2019-05-15T08:35:45.867Z,99802.72
2019-05-15T08:38:17.974Z,99803.64
2019-05-15T08:40:49.397Z,99799.78
2019-05-15T08:43:23.703Z,99800.83
2019-05-15T08:45:58.620Z,99801.50
2019-05-15T08:48:32.796Z,99806.90
2019-05-15T08:51:04.534Z,99794.63
2019-05-15T08:53:38.005Z,99792.13
2019-05-15T08:56:09.682Z,99795.00
2019-05-15T08:58:41.423Z,99787.41
2019-05-15T09:01:13.521Z,99783.58
2019-05-15T09:03:49.002Z,99784.20
2019-05-15T09:06:25.505Z,99783.78
2019-05-15T09:08:58.510Z,99780.41
2019-05-15T09:11:30.434Z,99771.65
2019-05-15T09:14:02.585Z,99767.20
2019-05-15T09:16:34.322Z,99763.87
2019-05-15T09:19:08.260Z,99764.59
2019-05-15T09:21:39.547Z,99770.63
2019-05-15T09:24:11.728Z,99762.51
2019-05-15T09:26:43.466Z,99763.95
2019-05-15T09:29:18.297Z,99758.52
2019-05-15T09:31:51.314Z,99762.52
2019-05-15T09:34:23.487Z,99764.66
2019-05-15T09:36:55.245Z,99768.61
2019-05-15T09:39:28.670Z,99767.85
2019-05-15T09:42:00.708Z,99768.42
2019-05-15T09:44:32.607Z,99770.64
2019-05-15T09:47:04.409Z,99768.59
2019-05-15T09:49:36.177Z,99770.28
2019-05-15T09:52:09.275Z,99766.22
2019-05-15T09:54:41.672Z,99763.00
2019-05-15T09:57:15.159Z,99764.90
2019-05-15T09:59:48.796Z,99768.02
2019-05-15T10:02:20.660Z,99767.35
2019-05-15T10:05:05.483Z,99771.61
2019-05-15T10:07:28.434Z,99773.07
2019-05-15T10:10:02.373Z,99771.56
2019-05-15T10:12:35.475Z,99766.75
2019-05-15T10:15:11.117Z,99763.21
2019-05-15T10:17:45.026Z,99766.77
2019-05-15T10:20:19.632Z,99773.55
2019-05-15T10:22:54.724Z,99774.28
2019-05-15T10:25:28.169Z,99768.83
2019-05-15T10:28:00.080Z,99766.77
2019-05-15T10:30:34.049Z,99767.16
2019-05-15T10:33:08.357Z,99772.10
2019-05-15T10:35:39.509Z,99769.91
2019-05-15T10:38:12.199Z,99765.48
2019-05-15T10:41:00.034Z,99771.60
2019-05-15T10:43:20.846Z,99758.00
2019-05-15T10:45:54.784Z,99756.84
2019-05-15T10:48:29.183Z,99759.77
2019-05-15T10:51:06.268Z,99748.30
2019-05-15T10:53:34.325Z,99750.61
2019-05-15T10:56:08.730Z,99750.20
2019-05-15T10:58:39.796Z,99753.39
2019-05-15T11:01:11.655Z,99743.19
2019-05-15T11:03:45.289Z,99746.51
2019-05-15T11:06:18.291Z,99747.63
2019-05-15T11:08:51.622Z,99748.65
2019-05-15T11:11:23.671Z,99752.69
2019-05-15T11:14:00.264Z,99755.04
2019-05-15T11:16:29.969Z,99750.73
2019-05-15T11:19:01.726Z,99740.45
2019-05-15T11:21:33.525Z,99744.63
2019-05-15T11:24:05.329Z,99750.91
2019-05-15T11:26:40.015Z,99743.80
2019-05-15T11:29:13.601Z,99746.97
2019-05-15T11:31:45.348Z,99746.88
2019-05-15T11:34:18.781Z,99738.50
2019-05-15T11:36:50.764Z,99738.95
2019-05-15T11:39:22.507Z,99732.41
2019-05-15T11:41:54.329Z,99730.67
2019-05-15T11:44:28.117Z,99729.97
2019-05-15T11:46:59.510Z,99732.00
2019-05-15T11:49:31.318Z,99732.97
2019-05-15T11:52:03.044Z,99735.70
2019-05-15T11:54:34.780Z,99734.45
2019-05-15T11:57:08.628Z,99733.98
2019-05-15T11:59:44.957Z,99728.71
2019-05-15T12:02:14.799Z,99733.31
2019-05-15T12:04:46.557Z,99732.47
2019-05-15T12:07:18.370Z,99733.73
2019-05-15T12:09:51.961Z,99732.85
2019-05-15T12:12:23.708Z,99736.36
2019-05-15T12:14:55.540Z,99726.50
2019-05-15T12:17:28.448Z,99725.55
2019-05-15T12:22:33.985Z,99724.34
2019-05-15T12:27:41.558Z,99715.25
2019-05-15T12:30:13.338Z,99719.15
2019-05-15T12:35:20.805Z,99714.25
2019-05-15T12:37:54.638Z,99709.28
2019-05-15T13:01:12.739Z,99710.95
2019-05-15T13:03:35.289Z,99711.63
2019-05-15T13:06:08.093Z,99709.97
2019-05-15T13:08:41.823Z,99699.90
2019-05-15T13:11:15.114Z,99706.77
2019-05-15T13:13:48.560Z,99699.47
2019-05-15T13:16:20.592Z,99702.63
2019-05-15T13:18:52.367Z,99706.17
2019-05-15T13:21:24.098Z,99697.25
2019-05-15T13:23:55.897Z,99700.73
2019-05-15T13:26:29.517Z,99693.88
2019-05-15T13:29:01.237Z,99689.17
2019-05-15T13:31:33.053Z,99689.95
2019-05-15T13:34:04.765Z,99686.63
2019-05-15T13:36:38.997Z,99695.97
2019-05-15T13:39:09.965Z,99692.17
2019-05-15T13:41:41.756Z,99697.59
2019-05-15T13:44:13.504Z,99685.10
2019-05-15T13:46:45.217Z,99690.55
2019-05-15T13:49:18.742Z,99690.42
2019-05-15T13:51:50.462Z,99694.42
2019-05-15T13:54:22.877Z,99690.27
2019-05-15T13:56:54.663Z,99690.09
2019-05-15T13:59:28.512Z,99685.16
2019-05-15T14:02:00.171Z,99682.09
2019-05-15T14:04:31.902Z,99684.13
2019-05-15T14:07:03.653Z,99687.30
2019-05-15T14:09:35.401Z,99687.74
2019-05-15T14:12:12.426Z,99686.27
2019-05-15T14:14:42.177Z,99684.24
2019-05-15T14:17:13.981Z,99674.95
2019-05-15T14:19:45.723Z,99676.03
2019-05-15T14:22:17.445Z,99675.42
2019-05-15T14:24:49.479Z,99671.12
2019-05-15T14:27:21.229Z,99672.28
2019-05-15T14:29:52.968Z,99672.79
2019-05-15T14:32:35.515Z,99671.67
2019-05-15T14:34:58.569Z,99667.88
2019-05-15T14:37:31.158Z,99666.11
2019-05-15T14:40:03.002Z,99663.73
2019-05-15T14:42:34.745Z,99666.50
2019-05-15T14:45:09.394Z,99666.03
2019-05-15T14:47:41.118Z,99664.17
2019-05-15T14:50:12.837Z,99658.94
2019-05-15T14:52:48.144Z,99657.87
2019-05-15T14:55:21.979Z,99660.06
2019-05-15T14:57:53.691Z,99652.50
2019-05-15T15:00:28.793Z,99654.47
2019-05-15T15:02:59.108Z,99651.79
2019-05-15T15:05:31.371Z,99648.90
2019-05-15T15:08:17.331Z,99647.88
2019-05-15T15:10:38.434Z,99651.69
2019-05-15T15:13:14.791Z,99647.98
2019-05-15T15:15:48.500Z,99644.86
2019-05-15T15:18:19.950Z,99651.84
2019-05-15T15:20:51.705Z,99655.91
2019-05-15T15:23:23.463Z,99654.52
2019-05-15T15:25:57.805Z,99652.06
2019-05-15T15:28:29.865Z,99662.13
2019-05-15T15:31:03.898Z,99657.92
2019-05-15T15:33:39.002Z,99656.80
2019-05-15T15:36:11.148Z,99666.75
2019-05-15T15:38:44.208Z,99667.11
2019-05-15T15:41:16.255Z,99668.41
2019-05-15T15:43:48.607Z,99674.73
2019-05-15T15:46:20.387Z,99665.95
2019-05-15T15:48:52.232Z,99670.02
2019-05-15T15:51:23.939Z,99677.11
2019-05-15T15:53:57.930Z,99675.98
2019-05-15T15:56:30.058Z,99684.06
2019-05-15T15:59:01.946Z,99678.49
2019-05-15T16:01:33.753Z,99677.78
2019-05-15T16:04:05.500Z,99679.75
2019-05-15T16:06:38.795Z,99682.33
2019-05-15T16:09:10.882Z,99676.80
2019-05-15T16:11:42.673Z,99676.20
2019-05-15T16:14:14.402Z,99683.02
2019-05-15T16:16:48.466Z,99679.59
2019-05-15T16:19:19.796Z,99678.05
2019-05-15T16:21:53.231Z,99673.05
2019-05-15T16:24:25.353Z,99673.55
2019-05-15T16:26:57.942Z,99672.33
2019-05-15T16:29:32.300Z,99672.37
2019-05-15T16:32:04.490Z,99675.14
2019-05-15T16:34:39.104Z,99673.86
2019-05-15T16:37:10.155Z,99669.05
2019-05-15T16:39:41.979Z,99678.53
2019-05-15T16:42:13.714Z,99679.11
2019-05-15T16:44:45.819Z,99682.14
2019-05-15T16:47:18.611Z,99685.52
2019-05-15T16:49:50.677Z,99685.38
2019-05-15T16:52:22.440Z,99684.22
2019-05-15T16:54:54.171Z,99683.17
2019-05-15T16:57:31.117Z,99688.19
2019-05-15T17:00:04.077Z,99688.23
2019-05-15T17:02:39.591Z,99692.05
2019-05-15T17:05:12.563Z,99691.54
2019-05-15T17:07:44.287Z,99692.66
2019-05-15T17:10:16.414Z,99689.39
2019-05-15T17:12:49.241Z,99690.73
2019-05-15T17:15:21.412Z,99693.40
2019-05-15T17:17:53.622Z,99691.55
2019-05-15T17:20:25.708Z,99686.84
2019-05-15T17:22:57.885Z,99691.60
2019-05-15T17:25:29.983Z,99685.18
2019-05-15T17:28:01.694Z,99686.98
2019-05-15T17:30:34.558Z,99686.67
2019-05-15T17:33:06.731Z,99684.38
2019-05-15T17:35:38.574Z,99682.95
2019-05-15T17:38:10.497Z,99679.13
2019-05-15T17:40:43.708Z,99681.05
2019-05-15T17:43:18.269Z,99679.82
2019-05-15T17:45:51.019Z,99680.73
2019-05-15T17:48:24.032Z,99682.25
2019-05-15T17:50:58.422Z,99678.63
2019-05-15T17:53:29.257Z,99679.09
2019-05-15T17:56:02.411Z,99680.19
2019-05-15T17:58:34.459Z,99678.77
2019-05-15T18:01:08.701Z,99689.11
2019-05-15T18:03:39.786Z,99687.27
2019-05-15T18:06:14.804Z,99689.47
2019-05-15T18:08:48.599Z,99694.19
2019-05-15T18:11:22.885Z,99697.09
2019-05-15T18:13:58.204Z,99701.30
2019-05-15T18:16:32.040Z,99705.86
2019-05-15T18:19:03.995Z,99707.22
2019-05-15T18:21:38.133Z,99701.97
2019-05-15T18:24:10.467Z,99701.13
2019-05-15T18:26:42.308Z,99702.56
2019-05-15T18:29:14.102Z,99660.06
2019-05-15T18:31:48.029Z,99704.36
2019-05-15T18:34:19.771Z,99710.87
2019-05-15T18:36:53.480Z,99716.19
2019-05-15T18:39:25.292Z,99719.64
2019-05-15T18:41:57.801Z,99716.33
2019-05-15T18:44:31.547Z,99720.44
2019-05-15T18:47:05.658Z,99728.99
2019-05-15T18:49:38.082Z,99731.56
2019-05-15T18:52:13.999Z,99727.94
2019-05-15T18:54:48.053Z,99730.07
2019-05-15T18:57:20.187Z,99729.73
2019-05-15T18:59:52.294Z,99730.88
2019-05-15T19:02:24.456Z,99737.40
2019-05-15T19:04:58.540Z,99747.84
2019-05-15T19:07:29.791Z,99715.95
2019-05-15T19:10:01.604Z,99748.53
2019-05-15T19:12:35.076Z,99751.41
2019-05-15T19:15:09.318Z,99752.59
2019-05-15T19:17:40.624Z,99757.27
2019-05-15T19:20:12.774Z,99765.30
2019-05-15T19:22:44.531Z,99770.07
2019-05-15T19:25:17.924Z,99773.36
2019-05-15T19:27:50.235Z,99779.14
2019-05-15T19:30:22.061Z,99789.23
2019-05-15T19:32:55.563Z,99789.50
2019-05-15T19:35:28.305Z,99792.76
2019-05-15T19:38:00.171Z,99793.09
2019-05-15T19:40:32.056Z,99795.47
2019-05-15T19:43:04.192Z,99800.50
2019-05-15T19:45:45.196Z,99798.94
2019-05-15T19:48:19.946Z,99792.41
2019-05-15T19:50:50.833Z,99804.34
2019-05-15T19:53:22.970Z,99812.98
2019-05-15T19:55:58.024Z,99808.14
2019-05-15T19:58:30.246Z,99811.08
2019-05-15T20:01:02.060Z,99815.63
2019-05-15T20:03:45.402Z,99815.75
2019-05-15T20:06:08.377Z,99820.81
2019-05-15T20:08:40.371Z,99826.16
2019-05-15T20:11:13.767Z,99832.67
2019-05-15T20:13:50.930Z,99830.00
2019-05-15T20:16:28.477Z,99834.52
2019-05-15T20:19:00.669Z,99837.00
2019-05-15T20:21:32.865Z,99836.06
2019-05-15T20:24:04.823Z,99841.62
2019-05-15T20:26:38.048Z,99851.31
2019-05-15T20:29:10.273Z,99853.25
2019-05-15T20:31:43.947Z,99854.67
2019-05-15T20:34:15.730Z,99854.25
2019-05-15T20:36:48.831Z,99849.92
2019-05-15T20:39:21.138Z,99853.34
2019-05-15T20:41:53.199Z,99852.97
2019-05-15T20:44:26.805Z,99858.71
2019-05-15T20:46:59.159Z,99868.89
2019-05-15T20:49:32.452Z,99867.80
2019-05-15T20:52:04.267Z,99870.84
2019-05-15T20:54:38.623Z,99865.50
2019-05-15T20:57:09.855Z,99864.05
2019-05-15T20:59:41.966Z,99870.34
2019-05-15T21:02:14.029Z,99870.10
2019-05-15T21:04:47.596Z,99866.35
2019-05-15T21:07:34.437Z,99875.45
2019-05-15T21:09:53.850Z,99877.39
2019-05-15T21:12:29.385Z,99882.09
2019-05-15T21:15:00.661Z,99883.44
2019-05-15T21:17:33.958Z,99884.30
2019-05-15T21:20:06.029Z,99881.64
2019-05-15T21:22:40.430Z,99886.59
2019-05-15T21:25:12.287Z,99885.98
2019-05-15T21:27:44.278Z,99885.98
2019-05-15T21:30:18.992Z,99883.07
2019-05-15T21:32:50.629Z,99886.70
2019-05-15T21:35:22.398Z,99882.33
2019-05-15T21:37:54.150Z,99882.34
2019-05-15T21:40:27.934Z,99874.81
2019-05-15T21:42:59.375Z,99882.54
2019-05-15T21:45:35.254Z,99879.99
2019-05-15T21:48:09.022Z,99883.77
2019-05-15T21:50:41.004Z,99874.94
2019-05-15T21:53:12.800Z,99874.80
2019-05-15T21:55:44.569Z,99872.52
2019-05-15T21:58:18.606Z,99876.75
2019-05-15T22:00:52.696Z,99874.85
2019-05-15T22:03:25.662Z,99871.71
2019-05-15T22:05:59.315Z,99878.98
2019-05-15T22:08:31.075Z,99870.15
2019-05-15T22:11:03.825Z,99860.92
2019-05-15T22:14:22.765Z,99865.44
2019-05-15T22:17:55.199Z,99857.91
2019-05-15T22:20:30.572Z,99854.78
2019-05-15T22:23:08.206Z,99861.34
2019-05-15T22:26:00.350Z,99853.34
2019-05-15T22:28:33.720Z,99855.05
2019-05-15T22:35:05.775Z,99856.28
2019-05-15T22:37:23.749Z,99857.61
2019-05-15T22:40:00.888Z,99854.09
2019-05-15T22:42:34.974Z,99848.87
2019-05-15T22:45:09.071Z,99853.24
2019-05-15T22:47:41.129Z,99855.20
2019-05-15T22:50:14.877Z,99854.59
2019-05-15T22:52:49.375Z,99850.95
2019-05-15T22:55:21.559Z,99844.17
2019-05-15T22:57:53.936Z,99836.52
2019-05-15T23:00:28.651Z,99841.02
2019-05-15T23:02:59.388Z,99847.20
2019-05-15T23:05:31.939Z,99839.05
2019-05-15T23:08:05.623Z,99840.66
2019-05-15T23:10:39.006Z,99845.39
2019-05-15T23:13:11.112Z,99844.05
2019-05-15T23:15:42.868Z,99842.59
2019-05-15T23:18:17.907Z,99837.97
2019-05-15T23:20:51.377Z,99833.48
2019-05-15T23:23:25.282Z,99837.75
2019-05-15T23:25:57.798Z,99828.41
2019-05-15T23:28:29.866Z,99824.90
2019-05-15T23:31:02.898Z,99820.51
2019-05-15T23:33:34.717Z,99821.36
2019-05-15T23:36:06.523Z,99822.20
2019-05-15T23:38:38.555Z,99814.10
2019-05-15T23:41:11.987Z,99813.48
2019-05-15T23:43:45.502Z,99815.30
2019-05-15T23:46:28.805Z,99810.09
2019-05-15T23:49:00.648Z,99814.46
2019-05-15T23:51:33.278Z,99813.00
2019-05-15T23:54:08.303Z,99814.11
2019-05-15T23:56:41.685Z,99808.05
2019-05-15T23:59:13.494Z,99814.12
